createdAt,value
2022-10-17T00:00:45.253Z,53.33
2022-10-17T00:03:13.099Z,53.36
2022-10-17T00:05:42.315Z,53.97
2022-10-17T00:08:10.994Z,53.84
2022-10-17T00:10:39.564Z,53.80
2022-10-17T00:13:07.841Z,53.19
2022-10-17T00:15:35.337Z,53.27
2022-10-17T00:18:03.624Z,53.36
2022-10-17T00:20:32.846Z,53.29
2022-10-17T00:23:00.588Z,53.52
2022-10-17T00:25:28.398Z,53.41
2022-10-17T00:27:55.969Z,53.55
2022-10-17T00:30:23.406Z,53.53
2022-10-17T00:32:51.439Z,53.97
2022-10-17T00:35:18.995Z,53.34
2022-10-17T00:37:46.411Z,53.40
2022-10-17T00:40:14.253Z,53.27
2022-10-17T00:42:41.679Z,53.34
2022-10-17T00:45:24.974Z,53.67
2022-10-17T00:47:59.782Z,53.33
2022-10-17T00:50:28.195Z,53.02
2022-10-17T00:52:59.974Z,53.22
2022-10-17T00:55:29.667Z,53.22
2022-10-17T00:57:58.559Z,53.31
2022-10-17T01:00:26.305Z,53.75
2022-10-17T01:02:53.789Z,53.29
2022-10-17T01:05:22.426Z,53.08
2022-10-17T01:07:51.068Z,52.77
2022-10-17T01:10:19.172Z,53.19
2022-10-17T01:13:01.465Z,52.94
2022-10-17T01:16:18.560Z,53.08
2022-10-17T01:18:52.484Z,53.37
2022-10-17T01:21:55.343Z,53.31
2022-10-17T01:24:48.214Z,53.26
2022-10-17T01:27:30.281Z,53.39
2022-10-17T01:30:17.369Z,53.32
2022-10-17T01:32:48.733Z,53.78
2022-10-17T01:35:26.100Z,53.51
2022-10-17T01:37:59.462Z,52.97
2022-10-17T01:40:33.960Z,52.75
2022-10-17T01:43:13.834Z,52.59
2022-10-17T01:45:52.303Z,52.49
2022-10-17T01:48:25.564Z,52.51
2022-10-17T01:51:08.033Z,52.50
2022-10-17T01:53:39.849Z,52.58
2022-10-17T01:56:08.827Z,53.42
2022-10-17T01:58:47.659Z,53.48
2022-10-17T02:01:15.927Z,53.55
2022-10-17T02:03:45.207Z,53.45
2022-10-17T02:06:12.643Z,53.25
2022-10-17T02:08:42.991Z,53.31
2022-10-17T02:11:26.290Z,53.16
2022-10-17T02:14:14.333Z,53.38
2022-10-17T02:17:20.140Z,53.10
2022-10-17T02:20:14.737Z,53.33
2022-10-17T02:22:54.113Z,53.42
2022-10-17T02:25:29.832Z,53.39
2022-10-17T02:28:09.673Z,53.16
2022-10-17T02:30:44.531Z,53.76
2022-10-17T02:33:19.407Z,53.29
2022-10-17T02:35:52.346Z,53.63
2022-10-17T02:38:21.957Z,53.49
2022-10-17T02:40:51.319Z,53.90
2022-10-17T02:43:19.160Z,53.21
2022-10-17T02:45:46.874Z,53.47
2022-10-17T02:48:39.008Z,53.54
2022-10-17T02:51:18.061Z,53.59
2022-10-17T02:53:54.811Z,53.24
2022-10-17T02:56:22.680Z,53.44
2022-10-17T02:58:56.397Z,53.65
2022-10-17T03:01:24.492Z,53.65
2022-10-17T03:04:05.059Z,53.66
2022-10-17T03:06:32.514Z,53.54
2022-10-17T03:09:00.431Z,53.66
2022-10-17T03:11:28.480Z,53.68
2022-10-17T03:13:56.279Z,53.28
2022-10-17T03:16:24.018Z,53.31
2022-10-17T03:18:51.488Z,53.48
2022-10-17T03:21:18.933Z,53.19
2022-10-17T03:23:46.824Z,53.63
2022-10-17T03:26:14.847Z,54.05
2022-10-17T03:28:42.326Z,54.06
2022-10-17T03:31:12.851Z,53.95
2022-10-17T03:33:40.965Z,53.91
2022-10-17T03:36:10.750Z,53.27
2022-10-17T03:38:38.843Z,53.09
2022-10-17T03:41:07.068Z,53.02
2022-10-17T03:43:35.506Z,53.20
2022-10-17T03:46:03.602Z,53.38
2022-10-17T03:48:32.196Z,53.40
2022-10-17T03:51:07.362Z,53.28
2022-10-17T03:53:35.993Z,52.77
2022-10-17T03:56:24.568Z,52.71
2022-10-17T03:58:52.956Z,53.33
2022-10-17T04:01:21.159Z,53.37
2022-10-17T04:03:50.601Z,53.26
2022-10-17T04:06:19.289Z,53.23
2022-10-17T04:08:47.145Z,53.26
2022-10-17T04:11:17.787Z,53.32
2022-10-17T04:13:46.011Z,53.59
2022-10-17T04:16:16.322Z,53.47
2022-10-17T04:18:45.569Z,53.80
2022-10-17T04:21:13.430Z,53.79
2022-10-17T04:23:40.980Z,53.70
2022-10-17T04:26:09.345Z,53.59
2022-10-17T04:28:37.174Z,53.92
2022-10-17T04:31:07.397Z,53.48
2022-10-17T04:33:36.769Z,53.52
2022-10-17T04:36:13.129Z,52.78
2022-10-17T04:38:41.238Z,53.30
2022-10-17T04:41:14.197Z,54.08
2022-10-17T04:43:44.398Z,53.63
2022-10-17T04:46:15.883Z,53.73
2022-10-17T04:48:45.004Z,53.60
2022-10-17T04:51:15.207Z,53.57
2022-10-17T04:53:44.295Z,53.96
2022-10-17T04:56:22.628Z,53.31
2022-10-17T04:58:50.778Z,53.42
2022-10-17T05:01:20.747Z,53.46
2022-10-17T05:03:49.940Z,53.19
2022-10-17T05:06:22.709Z,53.38
2022-10-17T05:08:52.264Z,53.25
2022-10-17T05:11:28.714Z,52.81
2022-10-17T05:13:57.411Z,53.17
2022-10-17T05:16:25.908Z,52.75
2022-10-17T05:18:55.559Z,53.28
2022-10-17T05:21:24.565Z,53.51
2022-10-17T05:23:54.008Z,53.54
2022-10-17T05:26:22.029Z,53.70
2022-10-17T05:28:49.579Z,53.71
2022-10-17T05:31:17.842Z,54.61
2022-10-17T05:33:45.337Z,54.22
2022-10-17T05:36:13.816Z,54.36
2022-10-17T05:38:41.970Z,53.90
2022-10-17T05:41:10.236Z,54.25
2022-10-17T05:43:38.419Z,53.72
2022-10-17T05:46:06.693Z,53.71
2022-10-17T05:48:34.853Z,54.16
2022-10-17T05:51:05.323Z,54.01
2022-10-17T05:53:39.062Z,53.77
2022-10-17T05:56:09.453Z,54.54
2022-10-17T05:59:00.764Z,54.55
2022-10-17T06:01:28.565Z,55.07
2022-10-17T06:03:56.552Z,55.72
2022-10-17T06:06:25.038Z,55.32
2022-10-17T06:08:52.551Z,55.05
2022-10-17T06:11:20.678Z,55.15
2022-10-17T06:13:48.217Z,55.33
2022-10-17T06:16:16.460Z,54.53
2022-10-17T06:18:45.118Z,54.84
2022-10-17T06:21:15.743Z,54.50
2022-10-17T06:23:43.502Z,54.91
2022-10-17T06:26:12.227Z,55.42
2022-10-17T06:28:40.939Z,56.04
2022-10-17T06:31:10.614Z,55.68
2022-10-17T06:33:38.627Z,55.14
2022-10-17T06:36:07.427Z,55.56
2022-10-17T06:38:35.573Z,55.39
2022-10-17T06:41:10.726Z,54.87
2022-10-17T06:43:38.625Z,54.78
2022-10-17T06:46:06.948Z,54.09
2022-10-17T06:48:34.534Z,54.75
2022-10-17T06:51:06.702Z,55.22
2022-10-17T06:53:38.182Z,54.79
2022-10-17T06:56:07.210Z,54.60
2022-10-17T06:58:39.071Z,54.73
2022-10-17T07:01:12.080Z,54.04
2022-10-17T07:03:40.914Z,54.01
2022-10-17T07:06:10.808Z,54.26
2022-10-17T07:08:43.604Z,53.46
2022-10-17T07:11:19.886Z,53.34
2022-10-17T07:13:48.722Z,53.56
2022-10-17T07:16:16.569Z,54.20
2022-10-17T07:18:44.682Z,54.67
2022-10-17T07:21:12.138Z,55.69
2022-10-17T07:23:41.438Z,54.60
2022-10-17T07:26:11.476Z,54.15
2022-10-17T07:28:41.627Z,53.48
2022-10-17T07:31:15.038Z,54.38
2022-10-17T07:33:43.465Z,53.95
2022-10-17T07:36:11.662Z,53.93
2022-10-17T07:38:39.380Z,53.81
2022-10-17T07:41:08.616Z,52.70
2022-10-17T07:43:36.892Z,52.68
2022-10-17T07:46:05.770Z,54.07
2022-10-17T07:48:33.835Z,52.41
2022-10-17T07:51:05.499Z,53.29
2022-10-17T07:53:35.473Z,53.95
2022-10-17T07:56:07.921Z,51.79
2022-10-17T07:58:36.308Z,51.25
2022-10-17T08:01:06.669Z,51.31
2022-10-17T08:03:36.226Z,52.10
2022-10-17T08:06:04.154Z,52.12
2022-10-17T08:08:31.617Z,51.98
2022-10-17T08:11:05.492Z,51.46
2022-10-17T08:13:33.316Z,50.23
2022-10-17T08:16:07.480Z,47.57
2022-10-17T08:18:35.681Z,48.04
2022-10-17T08:21:08.662Z,49.73
2022-10-17T08:23:36.794Z,49.08
2022-10-17T08:26:08.186Z,48.84
2022-10-17T08:28:36.612Z,48.81
2022-10-17T08:31:10.149Z,49.00
2022-10-17T08:33:38.019Z,47.88
2022-10-17T08:36:06.158Z,48.24
2022-10-17T08:38:35.549Z,49.12
2022-10-17T08:41:07.905Z,47.13
2022-10-17T08:43:44.526Z,46.45
2022-10-17T08:46:12.186Z,48.06
2022-10-17T08:48:46.293Z,47.33
2022-10-17T08:51:21.599Z,47.44
2022-10-17T08:53:54.018Z,46.95
2022-10-17T08:56:48.032Z,47.60
2022-10-17T08:59:30.451Z,47.17
2022-10-17T09:02:01.984Z,47.93
2022-10-17T09:04:51.105Z,46.67
2022-10-17T09:07:42.874Z,46.77
2022-10-17T09:10:42.907Z,48.25
2022-10-17T09:13:25.617Z,47.39
2022-10-17T09:16:18.839Z,46.82
2022-10-17T09:18:49.472Z,46.55
2022-10-17T09:21:38.960Z,45.75
2022-10-17T09:24:15.856Z,44.74
2022-10-17T09:26:45.843Z,44.47
2022-10-17T09:29:23.266Z,45.91
2022-10-17T09:32:00.533Z,45.13
2022-10-17T09:34:29.554Z,45.21
2022-10-17T09:36:59.500Z,44.76
2022-10-17T09:39:29.181Z,43.40
2022-10-17T09:41:58.834Z,42.98
2022-10-17T09:44:33.791Z,42.06
2022-10-17T09:47:16.788Z,40.72
2022-10-17T09:49:46.176Z,41.06
2022-10-17T09:52:22.949Z,40.57
2022-10-17T09:54:53.294Z,40.88
2022-10-17T09:57:21.990Z,40.21
2022-10-17T10:00:00.912Z,40.98
2022-10-17T10:02:31.066Z,39.81
2022-10-17T10:05:04.991Z,40.71
2022-10-17T10:07:37.931Z,40.48
2022-10-17T10:10:08.878Z,41.29
2022-10-17T10:12:38.737Z,40.49
2022-10-17T10:15:33.580Z,40.05
2022-10-17T10:18:01.037Z,39.39
2022-10-17T10:20:35.237Z,39.21
2022-10-17T10:23:18.289Z,39.49
2022-10-17T10:25:57.483Z,38.99
2022-10-17T10:28:31.307Z,38.48
2022-10-17T10:31:01.326Z,38.96
2022-10-17T10:33:30.190Z,38.52
2022-10-17T10:36:01.913Z,38.48
2022-10-17T10:38:32.328Z,38.27
2022-10-17T10:41:09.569Z,38.56
2022-10-17T10:43:48.013Z,39.19
2022-10-17T10:46:28.632Z,38.44
2022-10-17T10:48:59.716Z,37.84
2022-10-17T10:51:42.619Z,38.08
2022-10-17T10:54:28.780Z,37.75
2022-10-17T10:56:59.129Z,38.25
2022-10-17T10:59:29.839Z,37.16
2022-10-17T11:02:05.189Z,38.07
2022-10-17T11:04:47.525Z,37.88
2022-10-17T11:07:29.914Z,38.18
2022-10-17T11:10:05.740Z,37.38
2022-10-17T11:12:46.836Z,36.61
2022-10-17T11:15:33.533Z,38.38
2022-10-17T11:18:03.420Z,38.30
2022-10-17T11:21:03.628Z,36.79
2022-10-17T11:23:45.150Z,38.10
2022-10-17T11:26:25.935Z,37.24
2022-10-17T11:28:54.782Z,36.06
2022-10-17T11:31:25.496Z,37.04
2022-10-17T11:34:04.525Z,36.41
2022-10-17T11:36:38.220Z,37.17
2022-10-17T11:39:10.497Z,37.55
2022-10-17T11:41:43.287Z,38.02
2022-10-17T11:44:25.142Z,37.83
2022-10-17T11:46:57.918Z,36.67
2022-10-17T11:49:31.264Z,36.92
2022-10-17T11:52:07.657Z,36.36
2022-10-17T11:54:43.361Z,37.44
2022-10-17T11:57:30.381Z,37.03
2022-10-17T12:00:09.896Z,37.34
2022-10-17T12:03:09.919Z,36.25
2022-10-17T12:06:09.989Z,35.58
2022-10-17T12:08:55.326Z,35.44
2022-10-17T12:11:53.541Z,35.36
2022-10-17T12:14:35.033Z,35.86
2022-10-17T12:17:03.645Z,36.03
2022-10-17T12:19:37.868Z,35.96
2022-10-17T12:22:20.726Z,36.59
2022-10-17T12:25:00.904Z,36.68
2022-10-17T12:27:32.858Z,36.69
2022-10-17T12:30:22.403Z,35.96
2022-10-17T12:33:13.219Z,35.50
2022-10-17T12:35:41.012Z,35.69
2022-10-17T12:38:21.190Z,36.35
2022-10-17T12:40:54.100Z,35.43
2022-10-17T12:43:27.701Z,35.40
2022-10-17T12:46:02.155Z,35.96
2022-10-17T12:48:38.729Z,34.60
2022-10-17T12:54:03.073Z,35.42
2022-10-17T12:56:44.921Z,36.84
2022-10-17T12:59:23.043Z,35.38
2022-10-17T13:01:53.932Z,35.06
2022-10-17T13:04:21.904Z,35.01
2022-10-17T13:06:54.477Z,34.93
2022-10-17T13:09:25.904Z,35.05
2022-10-17T13:11:54.429Z,35.54
2022-10-17T13:14:23.176Z,34.73
2022-10-17T13:16:53.994Z,34.33
2022-10-17T13:19:42.173Z,34.14
2022-10-17T13:22:31.242Z,35.47
2022-10-17T13:25:09.053Z,35.74
2022-10-17T13:27:37.569Z,35.72
2022-10-17T13:30:20.643Z,35.51
2022-10-17T13:32:48.118Z,34.53
2022-10-17T13:35:31.724Z,34.48
2022-10-17T13:38:12.795Z,34.69
2022-10-17T13:40:49.915Z,34.40
2022-10-17T13:43:20.925Z,34.52
2022-10-17T13:46:32.611Z,33.69
2022-10-17T13:48:58.654Z,32.94
2022-10-17T13:51:27.663Z,32.41
2022-10-17T13:53:55.148Z,33.31
2022-10-17T13:56:28.718Z,33.07
2022-10-17T13:59:18.987Z,32.28
2022-10-17T14:01:49.778Z,33.14
2022-10-17T14:04:20.439Z,32.83
2022-10-17T14:06:49.815Z,32.96
2022-10-17T14:09:25.448Z,33.24
2022-10-17T14:12:07.268Z,33.44
2022-10-17T14:14:58.125Z,33.55
2022-10-17T14:17:25.263Z,32.75
2022-10-17T14:22:50.514Z,33.10
2022-10-17T14:25:29.921Z,33.60
2022-10-17T14:28:08.008Z,33.42
2022-10-17T14:30:55.626Z,33.65
2022-10-17T14:33:27.528Z,32.96
2022-10-17T14:35:58.579Z,33.36
2022-10-17T14:38:26.342Z,33.81
2022-10-17T14:42:04.091Z,33.70
2022-10-17T14:43:57.035Z,33.63
2022-10-17T14:46:24.790Z,33.82
2022-10-17T14:48:54.726Z,34.10
2022-10-17T14:51:22.621Z,33.87
2022-10-17T14:54:05.019Z,33.97
2022-10-17T14:56:40.264Z,34.59
2022-10-17T14:59:13.817Z,34.37
2022-10-17T15:01:45.967Z,34.46
2022-10-17T15:04:13.367Z,34.48
2022-10-17T15:06:41.253Z,35.09
2022-10-17T15:09:10.755Z,35.24
2022-10-17T15:11:38.716Z,35.24
2022-10-17T15:14:06.461Z,34.93
2022-10-17T15:16:35.195Z,34.93
2022-10-17T15:19:02.775Z,35.53
2022-10-17T15:21:47.210Z,35.47
2022-10-17T15:24:52.376Z,35.22
2022-10-17T15:27:24.924Z,35.18
2022-10-17T15:29:53.106Z,35.20
2022-10-17T15:32:21.426Z,35.30
2022-10-17T15:34:49.446Z,35.21
2022-10-17T15:37:23.395Z,35.31
2022-10-17T15:39:55.031Z,35.31
2022-10-17T15:42:27.722Z,35.51
2022-10-17T15:44:57.367Z,35.66
2022-10-17T15:47:36.273Z,35.84
2022-10-17T15:50:06.625Z,35.85
2022-10-17T15:52:34.044Z,35.77
2022-10-17T15:55:04.389Z,35.86
2022-10-17T15:57:37.999Z,35.94
2022-10-17T16:00:16.383Z,36.43
2022-10-17T16:02:45.289Z,36.89
2022-10-17T16:05:23.540Z,37.26
2022-10-17T16:07:52.791Z,37.41
2022-10-17T16:10:21.488Z,37.81
2022-10-17T16:12:50.080Z,38.04
2022-10-17T16:15:25.219Z,38.56
2022-10-17T16:17:54.399Z,38.98
2022-10-17T16:20:24.114Z,39.26
2022-10-17T16:22:59.918Z,39.70
2022-10-17T16:25:29.555Z,40.15
2022-10-17T16:28:00.468Z,40.44
2022-10-17T16:30:30.718Z,40.75
2022-10-17T16:32:58.547Z,41.00
2022-10-17T16:35:31.915Z,40.76
2022-10-17T16:38:23.500Z,40.36
2022-10-17T16:40:51.325Z,40.38
2022-10-17T16:43:19.081Z,40.75
2022-10-17T16:45:46.658Z,40.81
2022-10-17T16:48:14.820Z,41.68
2022-10-17T16:50:43.168Z,42.57
2022-10-17T16:53:10.689Z,43.28
2022-10-17T16:55:38.530Z,43.47
2022-10-17T16:58:06.404Z,43.55
2022-10-17T17:00:33.955Z,43.49
2022-10-17T17:03:01.452Z,43.69
2022-10-17T17:05:29.192Z,43.96
2022-10-17T17:07:56.632Z,44.01
2022-10-17T17:10:24.059Z,44.26
2022-10-17T17:12:51.802Z,44.63
2022-10-17T17:15:19.199Z,44.80
2022-10-17T17:17:53.531Z,45.25
2022-10-17T17:20:23.211Z,45.23
2022-10-17T17:22:51.906Z,45.23
2022-10-17T17:25:19.511Z,45.45
2022-10-17T17:27:47.294Z,45.58
2022-10-17T17:30:14.803Z,45.60
2022-10-17T17:32:42.346Z,45.79
2022-10-17T17:35:10.137Z,45.87
2022-10-17T17:37:37.697Z,45.80
2022-10-17T17:40:06.240Z,45.93
2022-10-17T17:42:33.939Z,46.16
2022-10-17T17:45:01.359Z,46.07
2022-10-17T17:47:29.555Z,46.23
2022-10-17T17:49:57.588Z,46.51
2022-10-17T17:52:25.218Z,46.66
2022-10-17T17:54:52.943Z,46.60
2022-10-17T17:57:20.805Z,47.03
2022-10-17T17:59:52.240Z,47.21
2022-10-17T18:02:19.721Z,47.20
2022-10-17T18:04:48.626Z,47.38
2022-10-17T18:07:16.050Z,47.40
2022-10-17T18:09:43.468Z,47.37
2022-10-17T18:12:11.197Z,47.79
2022-10-17T18:14:38.757Z,47.77
2022-10-17T18:17:06.216Z,47.73
2022-10-17T18:19:34.451Z,47.90
2022-10-17T18:22:02.382Z,47.84
2022-10-17T18:24:30.310Z,47.66
2022-10-17T18:26:59.878Z,47.59
2022-10-17T18:29:29.433Z,47.79
2022-10-17T18:31:56.922Z,47.81
2022-10-17T18:34:25.205Z,47.97
2022-10-17T18:36:53.840Z,48.02
2022-10-17T18:39:21.375Z,48.01
2022-10-17T18:41:49.109Z,48.08
2022-10-17T18:44:16.904Z,48.42
2022-10-17T18:49:15.848Z,48.69
2022-10-17T18:51:43.296Z,48.42
2022-10-17T18:54:20.295Z,48.38
2022-10-17T18:56:51.064Z,48.35
2022-10-17T18:59:19.514Z,48.42
2022-10-17T19:01:47.615Z,48.45
2022-10-17T19:04:15.974Z,48.52
2022-10-17T19:06:43.759Z,48.53
2022-10-17T19:09:12.499Z,48.73
2022-10-17T19:11:40.689Z,48.66
2022-10-17T19:14:13.126Z,49.09
2022-10-17T19:16:46.673Z,49.05
2022-10-17T19:19:17.382Z,48.89
2022-10-17T19:21:45.630Z,49.05
2022-10-17T19:24:16.791Z,48.94
2022-10-17T19:26:45.466Z,49.16
2022-10-17T19:29:14.908Z,49.24
2022-10-17T19:31:42.886Z,49.60
2022-10-17T19:34:11.741Z,49.58
2022-10-17T19:36:40.143Z,49.57
2022-10-17T19:39:12.781Z,49.74
2022-10-17T19:41:42.059Z,49.76
2022-10-17T19:44:09.720Z,49.84
2022-10-17T19:46:37.654Z,49.94
2022-10-17T19:49:07.078Z,49.75
2022-10-17T19:51:34.614Z,49.80
2022-10-17T19:54:02.226Z,49.64
2022-10-17T19:56:32.075Z,50.35
2022-10-17T19:58:59.608Z,50.10
2022-10-17T20:01:29.932Z,50.40
2022-10-17T20:03:57.872Z,50.18
2022-10-17T20:06:25.784Z,50.33
2022-10-17T20:08:53.915Z,50.36
2022-10-17T20:11:23.957Z,50.27
2022-10-17T20:13:52.121Z,50.42
2022-10-17T20:16:24.263Z,50.56
2022-10-17T20:18:54.770Z,50.53
2022-10-17T20:21:27.473Z,50.93
2022-10-17T20:23:55.738Z,51.34
2022-10-17T20:26:37.017Z,51.13
2022-10-17T20:29:11.994Z,51.08
2022-10-17T20:31:40.831Z,51.05
2022-10-17T20:34:11.910Z,51.12
2022-10-17T20:36:39.701Z,50.88
2022-10-17T20:39:07.766Z,50.82
2022-10-17T20:41:35.697Z,51.28
2022-10-17T20:44:03.970Z,51.12
2022-10-17T20:46:44.904Z,51.04
2022-10-17T20:49:20.410Z,50.92
2022-10-17T20:51:47.944Z,51.00
2022-10-17T20:54:15.502Z,51.30
2022-10-17T20:56:43.280Z,50.90
2022-10-17T20:59:14.876Z,50.74
2022-10-17T21:01:42.688Z,50.67
2022-10-17T21:04:40.475Z,51.15
2022-10-17T21:06:58.053Z,50.73
2022-10-17T21:09:25.765Z,50.90
2022-10-17T21:11:55.751Z,50.60
2022-10-17T21:14:24.704Z,50.90
2022-10-17T21:16:52.467Z,50.77
2022-10-17T21:19:21.789Z,51.73
2022-10-17T21:21:49.409Z,51.88
2022-10-17T21:24:19.215Z,51.75
2022-10-17T21:26:50.303Z,51.57
2022-10-17T21:29:18.007Z,51.76
2022-10-17T21:31:45.486Z,51.68
2022-10-17T21:34:15.488Z,51.76
2022-10-17T21:36:43.871Z,51.96
2022-10-17T21:39:12.339Z,51.52
2022-10-17T21:41:40.001Z,51.68
2022-10-17T21:44:12.445Z,52.11
2022-10-17T21:46:40.154Z,51.60
2022-10-17T21:49:09.155Z,51.38
2022-10-17T21:51:36.576Z,51.46
2022-10-17T21:54:05.654Z,51.31
2022-10-17T21:56:34.864Z,51.12
2022-10-17T21:59:03.409Z,51.55
2022-10-17T22:01:40.026Z,51.29
2022-10-17T22:04:11.922Z,51.59
2022-10-17T22:06:41.307Z,51.89
2022-10-17T22:09:21.863Z,52.20
2022-10-17T22:11:52.043Z,51.57
2022-10-17T22:14:21.268Z,51.49
2022-10-17T22:16:49.431Z,51.64
2022-10-17T22:19:19.949Z,51.76
2022-10-17T22:21:47.626Z,51.71
2022-10-17T22:24:16.346Z,52.08
2022-10-17T22:26:44.634Z,51.91
2022-10-17T22:29:12.639Z,51.89
2022-10-17T22:31:40.403Z,52.41
2022-10-17T22:34:08.403Z,52.05
2022-10-17T22:36:36.316Z,51.72
2022-10-17T22:39:04.469Z,52.28
2022-10-17T22:41:31.993Z,52.28
2022-10-17T22:43:59.676Z,52.51
2022-10-17T22:46:27.368Z,52.09
2022-10-17T22:48:54.788Z,51.91
2022-10-17T22:53:55.064Z,52.11
2022-10-17T22:56:23.631Z,52.07
2022-10-17T22:58:51.515Z,52.17
2022-10-17T23:01:22.124Z,52.69
2022-10-17T23:03:51.144Z,52.49
2022-10-17T23:06:19.251Z,52.77
2022-10-17T23:08:47.048Z,52.65
2022-10-17T23:11:15.328Z,53.02
2022-10-17T23:13:42.763Z,52.81
2022-10-17T23:16:10.388Z,52.52
2022-10-17T23:18:38.638Z,52.28
2022-10-17T23:21:06.686Z,52.23
2022-10-17T23:23:34.301Z,52.27
2022-10-17T23:26:13.725Z,52.51
2022-10-17T23:28:42.154Z,52.88
2022-10-17T23:31:18.317Z,52.80
2022-10-17T23:33:47.900Z,52.27
2022-10-17T23:36:17.646Z,52.34
2022-10-17T23:38:46.703Z,52.41
2022-10-17T23:41:14.833Z,52.01
2022-10-17T23:43:43.442Z,52.72
2022-10-17T23:46:10.988Z,52.44
2022-10-17T23:48:38.855Z,52.49
2022-10-17T23:51:07.759Z,52.38
2022-10-17T23:53:36.203Z,52.30
2022-10-17T23:56:04.684Z,52.26
2022-10-17T23:58:32.501Z,52.46
